Portada
METAR-TAF:

METAR-TAF

Aeroports :

N'Djamena, Txad

latitud: 12-08N, longitud: 015-02E, altitud: 295 m

Observació

L'informe es va fer fa 46 minuts, a les 17:00 UTC
Vent 3 kt del Nord/Nord-Est
Temperatura 40°C
Humitat 7%
Pressió 1002 hPa
Visibilitat 10 km o més
sense núvols per sota de 1500 mi sense presència de cumulonimbus.

METAR: FTTJ 211700Z 02003KT CAVOK 40/M02 Q1002 NOSIG

Hora: 18:46 (17:46 UTC)

Pronòstic

L'informe es va fer fa 46 minuts, a les 17:00 UTC
Pronòstic vàlid del 21 a les 18 UTC al 22 a les 24 UTC
Vent 6 kt del Nord
Visibilitat: 8000 m
Temporalment
l' 22 a les 07 UTC al 22 a les 12 UTC
Vent 12 kt del Est/Nord-Est

TAF: FTTJ 211700Z 2118/2224 36006KT 8000 NSC TEMPO 2207/2212 06012KT

Observacions i pronòstics meteorològics de més de 4000 aeroports (METAR i TAF).

Les estacions disponibles són els punts grocs i vermells al mapa.

Posi el ratolí al punt desitjat per veure el nom de l'estació.

Feu clic per veure les observacions i els pronòstics meteorològics.

Per canviar el mapa: feu clic els botons verds amb una creu de color negre per apropar; al botó verd amb un guió per allunyar la imatge; o en les fletxes verdes per a mapes adjacents.


METAR-TAF: